Time;durP1;ratioP1;P1;durP2;ratioP2;P2;SDS_P1;SDS_P2;PMS_P1;PMS_P2;Temp;Humidity;BMP_temperature;BMP_pressure;BME280_temperature;BME280_humidity;BME280_pressure;Samples;Min_cycle;Max_cycle;Signal;HPM_P1;HPM_P2
2023/12/09 00:01:30;;;;;;;221.55;50.95;;;;;;;;;;5031264;28;20048;-78
2023/12/09 00:03:57;;;;;;;235.10;51.22;;;;;;;;;;5037586;28;20037;-78
2023/12/09 00:06:23;;;;;;;209.48;49.85;;;;;;;;;;5048622;28;20420;-78
2023/12/09 00:08:50;;;;;;;242.80;50.10;;;;;;;;;;5063484;28;20044;-78
2023/12/09 00:11:16;;;;;;;171.55;42.90;;;;;;;;;;5063759;28;20060;-78
2023/12/09 00:13:42;;;;;;;222.50;51.38;;;;;;;;;;5051754;28;20041;-78
2023/12/09 00:16:09;;;;;;;203.40;49.10;;;;;;;;;;5055246;28;20048;-78
2023/12/09 00:18:35;;;;;;;191.07;50.17;;;;;;;;;;5063506;28;20040;-78
2023/12/09 00:21:01;;;;;;;154.95;41.25;;;;;;;;;;5081036;28;20127;-78
2023/12/09 00:23:27;;;;;;;195.43;47.72;;;;;;;;;;5049268;28;20055;-78
2023/12/09 00:25:53;;;;;;;192.65;46.97;;;;;;;;;;5030961;28;20097;-80
2023/12/09 00:28:19;;;;;;;179.23;45.72;;;;;;;;;;5059586;28;20033;-79
2023/12/09 00:30:46;;;;;;;200.48;50.17;;;;;;;;;;5050058;28;20115;-78
2023/12/09 00:33:12;;;;;;;177.98;43.40;;;;;;;;;;5052047;28;20404;-78
2023/12/09 00:35:38;;;;;;;189.57;45.33;;;;;;;;;;5047479;28;20500;-79
2023/12/09 00:38:04;;;;;;;172.88;45.25;;;;;;;;;;5050046;28;20040;-77
2023/12/09 00:40:30;;;;;;;176.88;40.45;;;;;;;;;;5051057;28;20074;-79
2023/12/09 00:42:56;;;;;;;194.50;43.50;;;;;;;;;;5030477;28;20048;-79
2023/12/09 00:45:24;;;;;;;153.98;37.20;;;;;;;;;;5034927;28;20048;-79
2023/12/09 00:47:51;;;;;;;175.73;43.63;;;;;;;;;;5034508;28;20491;-78
2023/12/09 00:50:18;;;;;;;174.73;41.15;;;;;;;;;;5050426;28;20127;-79
2023/12/09 00:52:44;;;;;;;166.65;42.42;;;;;;;;;;5050155;28;20132;-78
2023/12/09 00:55:12;;;;;;;184.93;45.75;;;;;;;;;;5034033;28;20040;-81
2023/12/09 00:57:38;;;;;;;171.65;44.95;;;;;;;;;;5063961;28;20097;-78
2023/12/09 01:00:04;;;;;;;180.30;40.17;;;;;;;;;;5049180;28;20402;-77
2023/12/09 01:02:31;;;;;;;180.95;43.38;;;;;;;;;;5033789;28;20048;-77
2023/12/09 01:04:57;;;;;;;160.68;41.50;;;;;;;;;;5044201;28;20040;-82
2023/12/09 01:07:23;;;;;;;170.23;42.50;;;;;;;;;;5034513;28;20036;-84
2023/12/09 01:09:49;;;;;;;160.40;42.53;;;;;;;;;;5048106;28;20111;-84
2023/12/09 01:12:16;;;;;;;156.50;42.40;;;;;;;;;;5069675;28;20063;-83
2023/12/09 01:14:42;;;;;;;172.23;44.70;;;;;;;;;;5051955;28;20102;-81
2023/12/09 01:17:08;;;;;;;155.35;42.67;;;;;;;;;;5050249;28;20416;-83
2023/12/09 01:19:34;;;;;;;176.43;43.25;;;;;;;;;;5034192;28;20072;-84
2023/12/09 01:22:00;;;;;;;159.43;39.53;;;;;;;;;;5047423;28;20033;-83
2023/12/09 01:24:26;;;;;;;145.75;41.60;;;;;;;;;;5067093;28;20627;-80
2023/12/09 01:26:52;;;;;;;157.05;40.85;;;;;;;;;;5034809;28;20071;-82
2023/12/09 01:29:18;;;;;;;152.40;42.92;;;;;;;;;;5032164;28;20132;-82
2023/12/09 01:31:44;;;;;;;166.68;43.60;;;;;;;;;;5032485;28;20040;-83
2023/12/09 01:34:10;;;;;;;165.32;40.90;;;;;;;;;;5028397;28;20032;-82
2023/12/09 01:36:36;;;;;;;160.05;43.38;;;;;;;;;;5077494;28;20097;-84
2023/12/09 01:39:02;;;;;;;151.85;36.88;;;;;;;;;;5046783;28;20495;-83
2023/12/09 01:41:29;;;;;;;138.93;42.22;;;;;;;;;;5063489;28;20060;-83
2023/12/09 01:43:55;;;;;;;152.18;42.97;;;;;;;;;;5079378;28;20157;-84
2023/12/09 01:46:22;;;;;;;162.00;43.72;;;;;;;;;;5028650;28;20056;-82
2023/12/09 01:48:49;;;;;;;138.35;38.53;;;;;;;;;;5059340;28;20055;-83
2023/12/09 01:51:16;;;;;;;141.55;38.08;;;;;;;;;;5051120;28;20051;-83
2023/12/09 01:53:43;;;;;;;146.05;40.30;;;;;;;;;;5051361;28;20067;-83
2023/12/09 01:56:10;;;;;;;143.75;41.45;;;;;;;;;;5034614;28;20053;-83
2023/12/09 01:58:37;;;;;;;131.57;38.90;;;;;;;;;;5062634;28;20131;-84
2023/12/09 02:01:03;;;;;;;129.60;35.47;;;;;;;;;;5059933;28;20114;-84
2023/12/09 02:03:31;;;;;;;120.82;39.05;;;;;;;;;;5060589;28;20202;-84
2023/12/09 02:05:57;;;;;;;126.07;39.30;;;;;;;;;;5045563;28;20045;-84
2023/12/09 02:08:23;;;;;;;138.95;38.60;;;;;;;;;;5066614;28;20047;-82
2023/12/09 02:10:52;;;;;;;140.68;38.55;;;;;;;;;;5045734;28;20717;-84
2023/12/09 02:13:20;;;;;;;110.22;31.05;;;;;;;;;;5051393;28;20051;-84
2023/12/09 02:15:53;;;;;;;121.30;36.30;;;;;;;;;;5051467;28;20072;-78
2023/12/09 02:18:20;;;;;;;122.97;37.40;;;;;;;;;;5061725;28;20046;-79
2023/12/09 02:20:46;;;;;;;135.23;38.38;;;;;;;;;;5049478;28;20206;-78
2023/12/09 02:23:12;;;;;;;133.10;39.05;;;;;;;;;;5056072;28;20049;-78
2023/12/09 02:25:39;;;;;;;127.47;37.88;;;;;;;;;;5049320;28;20183;-78
2023/12/09 02:28:16;;;;;;;118.90;38.70;;;;;;;;;;5035293;28;20109;-79
2023/12/09 02:30:55;;;;;;;138.73;39.22;;;;;;;;;;5034348;28;20162;-79
2023/12/09 02:33:23;;;;;;;138.77;37.00;;;;;;;;;;5047121;28;20119;-79
2023/12/09 02:35:50;;;;;;;120.53;34.67;;;;;;;;;;5065210;28;20040;-79
2023/12/09 02:38:17;;;;;;;101.35;32.85;;;;;;;;;;5043043;28;20053;-77
2023/12/09 02:40:44;;;;;;;110.85;34.88;;;;;;;;;;5049040;28;20044;-78
2023/12/09 02:43:10;;;;;;;126.78;35.40;;;;;;;;;;5030760;28;20101;-78
2023/12/09 02:45:37;;;;;;;114.60;38.10;;;;;;;;;;5045595;28;20445;-80
2023/12/09 02:48:03;;;;;;;111.38;35.15;;;;;;;;;;5045946;28;20040;-78
2023/12/09 02:50:30;;;;;;;110.40;36.55;;;;;;;;;;5046747;28;20032;-79
2023/12/09 02:52:56;;;;;;;113.10;35.20;;;;;;;;;;5063646;28;20495;-79
2023/12/09 02:55:22;;;;;;;111.68;36.22;;;;;;;;;;5044559;28;20047;-79
2023/12/09 02:57:48;;;;;;;107.90;35.08;;;;;;;;;;5048469;28;20049;-79
2023/12/09 03:00:15;;;;;;;107.03;32.53;;;;;;;;;;5057095;28;20079;-79
2023/12/09 03:02:41;;;;;;;102.20;33.50;;;;;;;;;;5078819;28;20040;-79
2023/12/09 03:05:07;;;;;;;102.13;32.25;;;;;;;;;;5029333;28;20041;-79
2023/12/09 03:07:33;;;;;;;90.95;32.03;;;;;;;;;;5062426;28;20037;-78
2023/12/09 03:10:00;;;;;;;111.78;33.92;;;;;;;;;;5058187;28;20105;-78
2023/12/09 03:12:26;;;;;;;91.45;31.58;;;;;;;;;;5064730;28;20041;-79
2023/12/09 03:14:55;;;;;;;97.97;34.15;;;;;;;;;;5063094;28;20041;-78
2023/12/09 03:17:21;;;;;;;89.00;31.15;;;;;;;;;;5049576;28;20045;-76
2023/12/09 03:19:47;;;;;;;99.88;32.25;;;;;;;;;;5063778;28;20075;-78
2023/12/09 03:22:13;;;;;;;77.25;31.35;;;;;;;;;;5048113;28;20037;-77
2023/12/09 03:24:42;;;;;;;74.28;24.90;;;;;;;;;;5074606;28;20041;-83
2023/12/09 03:27:08;;;;;;;78.32;28.63;;;;;;;;;;5047504;28;20041;-82
2023/12/09 03:29:36;;;;;;;86.35;27.00;;;;;;;;;;5026985;28;20079;-79
2023/12/09 03:32:02;;;;;;;90.40;28.17;;;;;;;;;;5062669;28;20033;-82
2023/12/09 03:34:28;;;;;;;94.78;31.40;;;;;;;;;;5041791;28;20043;-82
2023/12/09 03:36:54;;;;;;;82.53;26.92;;;;;;;;;;5034356;28;20122;-83
2023/12/09 03:39:20;;;;;;;80.60;28.35;;;;;;;;;;5051738;28;20117;-81
2023/12/09 03:41:46;;;;;;;91.40;27.70;;;;;;;;;;5047021;28;20046;-84
2023/12/09 03:44:12;;;;;;;77.72;29.35;;;;;;;;;;5042757;28;20044;-81
2023/12/09 03:46:38;;;;;;;79.05;26.30;;;;;;;;;;5032973;28;20048;-85
2023/12/09 03:49:04;;;;;;;69.60;23.60;;;;;;;;;;5043736;28;20098;-81
2023/12/09 03:51:30;;;;;;;78.57;25.73;;;;;;;;;;5041113;28;20032;-83
2023/12/09 03:53:56;;;;;;;71.07;28.55;;;;;;;;;;5059086;28;20029;-83
2023/12/09 03:56:22;;;;;;;78.95;26.80;;;;;;;;;;5028963;28;20045;-83
2023/12/09 03:58:48;;;;;;;75.95;27.08;;;;;;;;;;5063605;28;20512;-81
2023/12/09 04:01:15;;;;;;;80.43;25.77;;;;;;;;;;5051331;28;20051;-80
2023/12/09 04:03:41;;;;;;;71.88;25.25;;;;;;;;;;5046592;28;20040;-83
2023/12/09 04:06:07;;;;;;;70.00;27.33;;;;;;;;;;5038676;28;20045;-83
2023/12/09 04:08:33;;;;;;;68.10;27.00;;;;;;;;;;5034672;28;20434;-84
2023/12/09 04:10:59;;;;;;;88.22;26.50;;;;;;;;;;5037567;28;20044;-83
2023/12/09 04:13:27;;;;;;;75.82;26.92;;;;;;;;;;5045738;28;20099;-84
2023/12/09 04:15:53;;;;;;;72.38;23.20;;;;;;;;;;5048315;28;20036;-81
2023/12/09 04:18:19;;;;;;;60.83;27.02;;;;;;;;;;5045270;28;20045;-84
2023/12/09 04:20:46;;;;;;;70.95;26.75;;;;;;;;;;5037669;28;20044;-86
2023/12/09 04:23:12;;;;;;;76.47;26.23;;;;;;;;;;5034994;28;20087;-84
2023/12/09 04:25:38;;;;;;;67.68;26.15;;;;;;;;;;5054192;28;20422;-86
2023/12/09 04:28:05;;;;;;;61.85;23.92;;;;;;;;;;5061625;28;21885;-82
2023/12/09 04:30:31;;;;;;;63.80;25.40;;;;;;;;;;5034071;28;20043;-82
2023/12/09 04:32:57;;;;;;;53.50;22.17;;;;;;;;;;5078794;28;20048;-85
2023/12/09 04:35:23;;;;;;;58.45;22.25;;;;;;;;;;5065298;28;20044;-83
2023/12/09 04:37:49;;;;;;;61.85;23.33;;;;;;;;;;5040862;28;20036;-83
2023/12/09 04:40:15;;;;;;;63.08;21.77;;;;;;;;;;5049419;28;20039;-83
2023/12/09 04:42:41;;;;;;;67.00;23.80;;;;;;;;;;5054071;28;20048;-83
2023/12/09 04:45:08;;;;;;;66.90;21.08;;;;;;;;;;5040214;28;20056;-83
2023/12/09 04:47:34;;;;;;;52.78;19.88;;;;;;;;;;5038699;28;20053;-83
2023/12/09 04:50:00;;;;;;;52.97;20.08;;;;;;;;;;5068676;28;20433;-84
2023/12/09 04:52:26;;;;;;;58.72;20.80;;;;;;;;;;5067754;28;20114;-84
2023/12/09 04:54:53;;;;;;;61.08;21.73;;;;;;;;;;5033766;28;20037;-84
2023/12/09 04:57:19;;;;;;;65.15;19.90;;;;;;;;;;5033151;28;20238;-84
2023/12/09 04:59:45;;;;;;;56.40;18.77;;;;;;;;;;5051015;28;20420;-84
2023/12/09 05:02:12;;;;;;;58.22;21.30;;;;;;;;;;5032440;28;20029;-84
2023/12/09 05:04:38;;;;;;;59.33;21.27;;;;;;;;;;5040786;28;20380;-83
2023/12/09 05:07:04;;;;;;;55.65;18.38;;;;;;;;;;5045472;28;21121;-79
2023/12/09 05:09:30;;;;;;;57.03;21.33;;;;;;;;;;5056362;28;20083;-83
2023/12/09 05:11:56;;;;;;;64.38;23.55;;;;;;;;;;5056754;28;20056;-83
2023/12/09 05:14:23;;;;;;;52.33;19.52;;;;;;;;;;5040066;28;20119;-83
2023/12/09 05:16:49;;;;;;;51.88;19.15;;;;;;;;;;5038761;28;20180;-83
2023/12/09 05:19:15;;;;;;;47.33;19.50;;;;;;;;;;5050648;28;20044;-82
2023/12/09 05:21:41;;;;;;;47.20;18.00;;;;;;;;;;5042756;28;20044;-84
2023/12/09 05:24:07;;;;;;;58.05;19.83;;;;;;;;;;5036282;28;20137;-78
2023/12/09 05:26:33;;;;;;;46.53;18.35;;;;;;;;;;5054452;28;20071;-79
2023/12/09 05:28:59;;;;;;;54.78;18.45;;;;;;;;;;5037024;28;20047;-79
2023/12/09 05:31:26;;;;;;;58.35;19.17;;;;;;;;;;5049306;28;20048;-78
2023/12/09 05:33:52;;;;;;;54.55;18.70;;;;;;;;;;5034003;28;20395;-80
2023/12/09 05:36:18;;;;;;;55.30;22.52;;;;;;;;;;5070078;28;20037;-79
2023/12/09 05:38:44;;;;;;;44.20;16.67;;;;;;;;;;5065724;28;20047;-81
2023/12/09 05:41:11;;;;;;;51.42;16.33;;;;;;;;;;5061166;28;20109;-77
2023/12/09 05:43:37;;;;;;;49.53;18.00;;;;;;;;;;5048847;28;20044;-78
2023/12/09 05:46:04;;;;;;;55.78;19.75;;;;;;;;;;5049357;28;20507;-87
2023/12/09 05:48:32;;;;;;;41.60;17.17;;;;;;;;;;5063871;28;20035;-81
2023/12/09 05:50:58;;;;;;;49.47;17.60;;;;;;;;;;5056717;28;20048;-85
2023/12/09 05:53:24;;;;;;;46.55;17.90;;;;;;;;;;5031754;28;20037;-87
2023/12/09 05:55:50;;;;;;;48.05;19.27;;;;;;;;;;5037460;28;20052;-83
2023/12/09 05:58:16;;;;;;;47.15;16.02;;;;;;;;;;5040003;28;20040;-84
2023/12/09 06:00:44;;;;;;;51.50;17.58;;;;;;;;;;5052988;28;20135;-82
2023/12/09 06:03:10;;;;;;;41.05;15.90;;;;;;;;;;5064940;28;20032;-84
2023/12/09 06:05:36;;;;;;;42.75;15.15;;;;;;;;;;5065887;28;20052;-84
2023/12/09 06:08:03;;;;;;;45.42;16.50;;;;;;;;;;5051953;28;20189;-85
2023/12/09 06:10:29;;;;;;;46.40;15.80;;;;;;;;;;5025545;28;20044;-84
2023/12/09 06:12:55;;;;;;;44.40;16.15;;;;;;;;;;5045211;28;20048;-85
2023/12/09 06:15:21;;;;;;;45.58;17.50;;;;;;;;;;5065921;28;20067;-82
2023/12/09 06:17:47;;;;;;;52.95;16.23;;;;;;;;;;5063486;28;20041;-84
2023/12/09 06:20:13;;;;;;;39.50;16.25;;;;;;;;;;5059325;28;20177;-81
2023/12/09 06:22:39;;;;;;;44.75;16.60;;;;;;;;;;5049412;28;20410;-83
2023/12/09 06:25:05;;;;;;;48.53;16.52;;;;;;;;;;5058680;28;20036;-82
2023/12/09 06:27:31;;;;;;;48.13;17.13;;;;;;;;;;5063339;28;20089;-82
2023/12/09 06:29:57;;;;;;;64.30;19.27;;;;;;;;;;5044355;28;20133;-84
2023/12/09 06:32:24;;;;;;;58.00;17.85;;;;;;;;;;5034425;28;20043;-83
2023/12/09 06:34:50;;;;;;;57.03;17.15;;;;;;;;;;5042984;28;20059;-83
2023/12/09 06:37:16;;;;;;;47.67;17.23;;;;;;;;;;5046956;28;20044;-84
2023/12/09 06:39:42;;;;;;;61.92;17.48;;;;;;;;;;5046632;28;20044;-81
2023/12/09 06:42:09;;;;;;;58.00;19.45;;;;;;;;;;5044870;28;20037;-82
2023/12/09 06:44:35;;;;;;;49.13;18.02;;;;;;;;;;5048574;28;20048;-83
2023/12/09 06:47:01;;;;;;;60.85;18.33;;;;;;;;;;5043600;28;20551;-83
2023/12/09 06:49:27;;;;;;;48.72;17.10;;;;;;;;;;5047754;28;20037;-84
2023/12/09 06:51:53;;;;;;;50.83;18.15;;;;;;;;;;5047011;28;20075;-84
2023/12/09 06:54:19;;;;;;;48.22;17.75;;;;;;;;;;5037138;28;20079;-83
2023/12/09 06:56:45;;;;;;;53.10;18.98;;;;;;;;;;5030129;28;20064;-85
2023/12/09 06:59:11;;;;;;;53.60;16.33;;;;;;;;;;5040033;28;20138;-83
2023/12/09 07:01:37;;;;;;;46.75;16.48;;;;;;;;;;5044882;28;20499;-85
2023/12/09 07:04:03;;;;;;;49.88;18.27;;;;;;;;;;5060769;28;20044;-87
2023/12/09 07:06:30;;;;;;;49.67;16.55;;;;;;;;;;5058028;28;20045;-85
2023/12/09 07:08:59;;;;;;;46.72;15.50;;;;;;;;;;5044735;28;20044;-84
2023/12/09 07:11:25;;;;;;;43.88;16.95;;;;;;;;;;5062768;28;20181;-83
2023/12/09 07:13:51;;;;;;;48.90;15.50;;;;;;;;;;5028972;28;20040;-83
2023/12/09 07:16:18;;;;;;;47.55;15.98;;;;;;;;;;5045028;28;20043;-87
2023/12/09 07:18:46;;;;;;;41.35;15.48;;;;;;;;;;5062699;28;20158;-86
2023/12/09 07:21:12;;;;;;;38.10;15.65;;;;;;;;;;5060683;28;20061;-84
2023/12/09 07:23:38;;;;;;;49.10;15.90;;;;;;;;;;5077135;28;20135;-85
2023/12/09 07:26:04;;;;;;;40.45;16.88;;;;;;;;;;5064186;28;20093;-87
2023/12/09 07:28:30;;;;;;;43.33;16.85;;;;;;;;;;5043921;28;20492;-87
2023/12/09 07:30:57;;;;;;;45.53;16.45;;;;;;;;;;5049385;28;20050;-84
2023/12/09 07:33:24;;;;;;;42.97;16.20;;;;;;;;;;5042279;28;20044;-82
2023/12/09 07:35:50;;;;;;;39.67;16.20;;;;;;;;;;5052700;28;20047;-86
2023/12/09 07:38:17;;;;;;;34.25;14.27;;;;;;;;;;5029513;28;20070;-87
2023/12/09 07:40:43;;;;;;;44.22;14.93;;;;;;;;;;5066311;28;20052;-87
2023/12/09 07:43:09;;;;;;;47.47;15.38;;;;;;;;;;5048912;28;20056;-84
2023/12/09 07:45:35;;;;;;;36.15;15.20;;;;;;;;;;5065817;28;20048;-84
2023/12/09 07:48:02;;;;;;;37.50;14.48;;;;;;;;;;5064221;28;20591;-85
2023/12/09 07:50:28;;;;;;;46.83;14.82;;;;;;;;;;5047564;28;20033;-84
2023/12/09 07:52:54;;;;;;;34.97;14.73;;;;;;;;;;5049972;28;20045;-83
2023/12/09 07:55:20;;;;;;;40.55;12.43;;;;;;;;;;5032849;28;20045;-86
2023/12/09 07:57:46;;;;;;;36.10;12.88;;;;;;;;;;5067013;28;20051;-84
2023/12/09 08:00:12;;;;;;;34.97;13.95;;;;;;;;;;5064321;28;20044;-87
2023/12/09 08:02:38;;;;;;;30.60;12.73;;;;;;;;;;5062414;28;20048;-84
2023/12/09 08:05:06;;;;;;;29.95;12.63;;;;;;;;;;5052273;28;20052;-84
2023/12/09 08:07:32;;;;;;;40.67;13.40;;;;;;;;;;5040103;28;20037;-85
2023/12/09 08:09:58;;;;;;;42.15;14.68;;;;;;;;;;5058518;28;20041;-81
2023/12/09 08:12:24;;;;;;;37.97;15.82;;;;;;;;;;5037822;28;20063;-80
2023/12/09 08:14:50;;;;;;;38.30;15.00;;;;;;;;;;5061205;28;20435;-84
2023/12/09 08:17:16;;;;;;;42.63;15.88;;;;;;;;;;5066113;28;20415;-85
2023/12/09 08:19:42;;;;;;;43.17;16.58;;;;;;;;;;5040269;28;20055;-85
2023/12/09 08:22:08;;;;;;;43.35;14.43;;;;;;;;;;5073394;28;20045;-84
2023/12/09 08:24:34;;;;;;;40.95;14.68;;;;;;;;;;5063097;28;20133;-79
2023/12/09 08:27:00;;;;;;;34.33;12.63;;;;;;;;;;5042525;28;20044;-79
2023/12/09 08:29:26;;;;;;;31.33;10.15;;;;;;;;;;5072515;28;20501;-79
2023/12/09 08:31:53;;;;;;;40.83;13.68;;;;;;;;;;5071257;28;20058;-79
2023/12/09 08:34:19;;;;;;;54.75;14.93;;;;;;;;;;5080894;28;20052;-79
2023/12/09 08:36:45;;;;;;;32.92;14.13;;;;;;;;;;5028558;28;20041;-79
2023/12/09 08:39:11;;;;;;;48.35;13.68;;;;;;;;;;5042661;28;20079;-79
2023/12/09 08:41:38;;;;;;;51.83;14.60;;;;;;;;;;5057020;28;20036;-80
2023/12/09 08:44:04;;;;;;;47.03;14.32;;;;;;;;;;5039205;28;20469;-80
2023/12/09 08:46:30;;;;;;;48.95;14.90;;;;;;;;;;5070981;28;20075;-80
2023/12/09 08:48:56;;;;;;;45.35;13.93;;;;;;;;;;5058309;28;20045;-81
2023/12/09 08:51:23;;;;;;;40.20;12.18;;;;;;;;;;5043823;28;20037;-81
2023/12/09 08:53:50;;;;;;;32.75;11.35;;;;;;;;;;5079853;28;20036;-79
2023/12/09 08:56:16;;;;;;;34.63;12.70;;;;;;;;;;5065586;28;20044;-86
2023/12/09 08:58:42;;;;;;;36.03;12.25;;;;;;;;;;5055772;28;20044;-88
2023/12/09 09:01:09;;;;;;;44.17;12.77;;;;;;;;;;5051585;28;20041;-86
2023/12/09 09:03:35;;;;;;;25.70;9.65;;;;;;;;;;5057053;28;20036;-88
2023/12/09 09:06:01;;;;;;;28.15;11.55;;;;;;;;;;5070520;28;20044;-88
2023/12/09 09:08:27;;;;;;;27.55;9.40;;;;;;;;;;5017694;28;20044;-88
2023/12/09 09:10:53;;;;;;;36.53;9.20;;;;;;;;;;5062100;28;20054;-87
2023/12/09 09:13:19;;;;;;;30.77;10.25;;;;;;;;;;5066745;28;20082;-88
2023/12/09 09:15:46;;;;;;;20.05;7.72;;;;;;;;;;5068282;28;20234;-88
2023/12/09 09:18:13;;;;;;;29.48;10.43;;;;;;;;;;5036050;28;20127;-83
2023/12/09 09:20:42;;;;;;;27.42;9.95;;;;;;;;;;5055342;28;20059;-87
2023/12/09 09:23:09;;;;;;;27.05;8.60;;;;;;;;;;5038468;28;20503;-86
2023/12/09 09:25:35;;;;;;;38.35;10.55;;;;;;;;;;5056232;28;20040;-86
2023/12/09 09:28:02;;;;;;;29.55;9.27;;;;;;;;;;5043592;28;20043;-86
2023/12/09 09:30:29;;;;;;;25.83;8.77;;;;;;;;;;5051901;28;20051;-86
2023/12/09 09:32:55;;;;;;;27.45;7.30;;;;;;;;;;5034082;28;20079;-83
2023/12/09 09:35:21;;;;;;;21.88;7.13;;;;;;;;;;5054754;28;20080;-86
2023/12/09 09:37:48;;;;;;;30.63;7.03;;;;;;;;;;5069751;28;20140;-86
2023/12/09 09:40:14;;;;;;;23.25;7.88;;;;;;;;;;5055402;28;20077;-87
2023/12/09 09:42:44;;;;;;;25.83;8.00;;;;;;;;;;5056554;28;20075;-86
2023/12/09 09:45:30;;;;;;;22.23;7.82;;;;;;;;;;5067792;28;20484;-80
2023/12/09 09:47:57;;;;;;;24.50;7.95;;;;;;;;;;5052909;28;20135;-79
2023/12/09 09:50:24;;;;;;;26.45;6.32;;;;;;;;;;5054636;28;20036;-79
2023/12/09 09:52:51;;;;;;;21.90;7.63;;;;;;;;;;5060882;28;20037;-83
2023/12/09 09:55:18;;;;;;;26.88;7.40;;;;;;;;;;5036530;28;20049;-81
2023/12/09 09:57:44;;;;;;;26.35;7.90;;;;;;;;;;5079838;28;20093;-85
2023/12/09 10:00:15;;;;;;;35.20;7.63;;;;;;;;;;5066371;28;20099;-85
2023/12/09 10:02:45;;;;;;;16.65;6.25;;;;;;;;;;5047055;28;20127;-84
2023/12/09 10:05:12;;;;;;;24.73;7.45;;;;;;;;;;5034983;28;20177;-85
2023/12/09 10:07:39;;;;;;;25.50;8.65;;;;;;;;;;5044037;28;20131;-83
2023/12/09 10:10:09;;;;;;;28.25;9.82;;;;;;;;;;5046128;28;20055;-80
2023/12/09 10:12:38;;;;;;;24.27;10.63;;;;;;;;;;5043558;28;20041;-85
2023/12/09 10:15:04;;;;;;;27.30;12.65;;;;;;;;;;5052683;28;20052;-79
2023/12/09 10:17:31;;;;;;;30.27;11.93;;;;;;;;;;5047148;28;20047;-79
2023/12/09 10:19:58;;;;;;;20.67;8.73;;;;;;;;;;5035486;28;20044;-79
2023/12/09 10:22:27;;;;;;;33.05;10.10;;;;;;;;;;5055921;28;20041;-79
2023/12/09 10:24:53;;;;;;;25.13;8.35;;;;;;;;;;5052715;28;20043;-79
2023/12/09 10:27:20;;;;;;;20.25;8.65;;;;;;;;;;5053971;28;20078;-79
2023/12/09 10:29:46;;;;;;;24.05;9.60;;;;;;;;;;5064541;28;20044;-74
2023/12/09 10:32:12;;;;;;;25.13;7.15;;;;;;;;;;5073440;28;20032;-82
2023/12/09 10:34:39;;;;;;;25.17;7.95;;;;;;;;;;5050229;28;22822;-79
2023/12/09 10:37:08;;;;;;;17.10;7.13;;;;;;;;;;5050124;28;20075;-78
2023/12/09 10:39:35;;;;;;;20.02;6.70;;;;;;;;;;5066579;28;20040;-79
2023/12/09 10:42:01;;;;;;;23.33;6.38;;;;;;;;;;5036224;28;20037;-78
2023/12/09 10:44:28;;;;;;;30.17;6.90;;;;;;;;;;5079151;28;20784;-78
2023/12/09 10:46:54;;;;;;;19.80;5.32;;;;;;;;;;5031561;28;20149;-78
2023/12/09 10:49:20;;;;;;;19.50;6.10;;;;;;;;;;5043848;28;20055;-81
2023/12/09 10:51:46;;;;;;;15.95;5.10;;;;;;;;;;5058433;28;20079;-80
2023/12/09 10:54:12;;;;;;;20.48;5.93;;;;;;;;;;5046762;28;20496;-79
2023/12/09 10:56:38;;;;;;;16.75;6.13;;;;;;;;;;5030668;28;20040;-79
2023/12/09 10:59:05;;;;;;;22.58;5.00;;;;;;;;;;5030109;28;20052;-80
2023/12/09 11:01:32;;;;;;;23.05;6.65;;;;;;;;;;5042096;28;20080;-78
2023/12/09 11:03:58;;;;;;;17.15;6.20;;;;;;;;;;5041568;28;20122;-79
2023/12/09 11:06:28;;;;;;;17.15;5.95;;;;;;;;;;5041889;28;20041;-83
2023/12/09 11:08:55;;;;;;;15.95;4.75;;;;;;;;;;5041831;28;20102;-85
2023/12/09 11:11:21;;;;;;;15.40;4.75;;;;;;;;;;5053203;28;20049;-83
2023/12/09 11:13:48;;;;;;;14.32;4.55;;;;;;;;;;5041019;28;20076;-85
2023/12/09 11:16:18;;;;;;;20.02;5.43;;;;;;;;;;5043367;28;20045;-83
2023/12/09 11:18:48;;;;;;;26.05;6.60;;;;;;;;;;5062348;28;20500;-83
2023/12/09 11:21:16;;;;;;;23.00;5.78;;;;;;;;;;5041026;28;20049;-83
2023/12/09 11:23:51;;;;;;;11.13;3.78;;;;;;;;;;5037104;28;20051;-84
2023/12/09 11:26:19;;;;;;;18.05;4.55;;;;;;;;;;5032361;28;20044;-83
2023/12/09 11:29:00;;;;;;;22.13;5.68;;;;;;;;;;5049705;28;20045;-83
2023/12/09 11:31:39;;;;;;;16.67;5.00;;;;;;;;;;5044572;28;20405;-81
2023/12/09 11:34:06;;;;;;;19.85;4.82;;;;;;;;;;5058060;28;20041;-83
2023/12/09 11:36:35;;;;;;;10.07;4.28;;;;;;;;;;5042154;28;20040;-83
2023/12/09 11:39:04;;;;;;;13.88;4.78;;;;;;;;;;5042831;28;20479;-83
2023/12/09 11:41:32;;;;;;;19.02;5.68;;;;;;;;;;5038686;28;20135;-82
2023/12/09 11:44:00;;;;;;;12.38;4.53;;;;;;;;;;5044950;28;20500;-83
2023/12/09 11:46:26;;;;;;;22.73;4.97;;;;;;;;;;5062661;28;20053;-83
2023/12/09 11:48:53;;;;;;;17.35;5.60;;;;;;;;;;5055026;28;20049;-83
2023/12/09 11:51:19;;;;;;;13.27;4.32;;;;;;;;;;5028143;28;20124;-86
2023/12/09 11:54:04;;;;;;;16.63;4.50;;;;;;;;;;5043145;28;20033;-81
2023/12/09 11:56:31;;;;;;;11.65;4.30;;;;;;;;;;5033795;28;20045;-85
2023/12/09 11:58:57;;;;;;;18.80;4.88;;;;;;;;;;5048116;28;20050;-85
2023/12/09 12:01:24;;;;;;;13.73;4.45;;;;;;;;;;5046631;28;20041;-84
2023/12/09 12:03:50;;;;;;;13.50;4.15;;;;;;;;;;5048247;28;20901;-86
2023/12/09 12:06:17;;;;;;;18.92;5.50;;;;;;;;;;5042688;28;20041;-83
2023/12/09 12:08:47;;;;;;;18.52;4.75;;;;;;;;;;5035578;28;20500;-83
2023/12/09 12:11:15;;;;;;;14.27;3.92;;;;;;;;;;5043574;28;20036;-84
2023/12/09 12:13:41;;;;;;;14.65;3.90;;;;;;;;;;5027655;28;20040;-83
2023/12/09 12:16:08;;;;;;;12.20;3.80;;;;;;;;;;5046274;28;20036;-84
2023/12/09 12:18:34;;;;;;;17.60;4.20;;;;;;;;;;5041303;28;20053;-83
2023/12/09 12:21:01;;;;;;;13.68;4.05;;;;;;;;;;5044731;28;20048;-84
2023/12/09 12:23:27;;;;;;;13.40;4.20;;;;;;;;;;5045113;28;20047;-84
2023/12/09 12:25:53;;;;;;;19.50;4.50;;;;;;;;;;5040527;28;20671;-82
2023/12/09 12:28:20;;;;;;;12.70;4.90;;;;;;;;;;5032833;28;20059;-82
2023/12/09 12:30:46;;;;;;;14.98;4.28;;;;;;;;;;5027882;28;20045;-85
2023/12/09 12:33:13;;;;;;;16.73;5.13;;;;;;;;;;5042606;28;20480;-82
2023/12/09 12:35:39;;;;;;;13.95;4.22;;;;;;;;;;5044685;28;20047;-80
2023/12/09 12:38:06;;;;;;;13.93;4.20;;;;;;;;;;5048103;28;20047;-84
2023/12/09 12:40:32;;;;;;;11.93;3.88;;;;;;;;;;5034573;28;20051;-84
2023/12/09 12:43:03;;;;;;;12.73;3.92;;;;;;;;;;5056140;28;20036;-89
2023/12/09 12:45:32;;;;;;;13.55;3.97;;;;;;;;;;5053952;28;20527;-87
2023/12/09 12:47:59;;;;;;;14.65;4.35;;;;;;;;;;5042839;28;20572;-88
2023/12/09 12:50:25;;;;;;;11.57;4.45;;;;;;;;;;5039527;28;20044;-87
2023/12/09 12:52:51;;;;;;;20.77;4.97;;;;;;;;;;5039186;28;20053;-86
2023/12/09 12:55:17;;;;;;;11.75;4.55;;;;;;;;;;5069479;28;20132;-84
2023/12/09 12:57:43;;;;;;;12.93;4.28;;;;;;;;;;5022712;28;20063;-84
2023/12/09 13:00:11;;;;;;;11.88;4.47;;;;;;;;;;5035801;28;20037;-84
2023/12/09 13:02:38;;;;;;;13.90;5.32;;;;;;;;;;5068885;28;20048;-83
2023/12/09 13:05:04;;;;;;;13.30;3.88;;;;;;;;;;5052613;28;20155;-81
2023/12/09 13:07:30;;;;;;;13.60;3.80;;;;;;;;;;5047389;28;20048;-83
2023/12/09 13:09:57;;;;;;;14.02;4.10;;;;;;;;;;5039979;28;20443;-82
2023/12/09 13:12:23;;;;;;;11.95;3.38;;;;;;;;;;5086673;28;20041;-84
2023/12/09 13:14:49;;;;;;;12.55;3.53;;;;;;;;;;5084003;28;20037;-83
2023/12/09 13:17:15;;;;;;;13.82;3.22;;;;;;;;;;5033625;28;20045;-83
2023/12/09 13:19:41;;;;;;;13.95;3.47;;;;;;;;;;5026610;28;20496;-83
2023/12/09 13:22:07;;;;;;;14.43;4.00;;;;;;;;;;5083672;28;20049;-83
2023/12/09 13:24:33;;;;;;;12.48;3.40;;;;;;;;;;5032812;28;20256;-83
2023/12/09 13:26:59;;;;;;;15.35;4.05;;;;;;;;;;5034738;28;20055;-83
2023/12/09 13:29:25;;;;;;;10.82;3.65;;;;;;;;;;5065609;28;20032;-83
2023/12/09 13:31:52;;;;;;;16.45;3.78;;;;;;;;;;5071281;28;20435;-81
2023/12/09 13:34:18;;;;;;;8.25;3.33;;;;;;;;;;5050848;28;20041;-81
2023/12/09 13:36:44;;;;;;;12.95;4.00;;;;;;;;;;5055923;28;20040;-83
2023/12/09 13:39:11;;;;;;;8.73;3.55;;;;;;;;;;5051912;28;20056;-82
2023/12/09 13:41:42;;;;;;;10.00;3.10;;;;;;;;;;5050446;28;20067;-85
2023/12/09 13:44:11;;;;;;;20.92;6.05;;;;;;;;;;5040082;28;20079;-83
2023/12/09 13:46:40;;;;;;;26.88;10.38;;;;;;;;;;5038298;28;20049;-82
2023/12/09 13:49:06;;;;;;;16.48;5.80;;;;;;;;;;5070991;28;20468;-82
2023/12/09 13:51:33;;;;;;;14.68;5.40;;;;;;;;;;5031918;28;20041;-83
2023/12/09 13:53:59;;;;;;;12.07;6.40;;;;;;;;;;5037730;28;20033;-82
2023/12/09 13:56:25;;;;;;;13.27;5.22;;;;;;;;;;5042031;28;20041;-83
2023/12/09 13:58:51;;;;;;;16.65;4.03;;;;;;;;;;5040279;28;20393;-83
2023/12/09 14:01:18;;;;;;;17.52;5.30;;;;;;;;;;5040230;28;20048;-81
2023/12/09 14:03:44;;;;;;;11.07;4.40;;;;;;;;;;5056436;28;20059;-83
2023/12/09 14:06:10;;;;;;;14.45;4.35;;;;;;;;;;5056476;28;20065;-82
2023/12/09 14:08:36;;;;;;;14.95;3.78;;;;;;;;;;5058119;28;20033;-83
2023/12/09 14:11:02;;;;;;;13.38;3.97;;;;;;;;;;5034576;28;20110;-81
2023/12/09 14:13:29;;;;;;;9.77;3.97;;;;;;;;;;5059449;28;20087;-82
2023/12/09 14:15:55;;;;;;;13.75;4.15;;;;;;;;;;5058660;28;20578;-83